Time;durP1;ratioP1;P1;durP2;ratioP2;P2;SDS_P1;SDS_P2;PMS_P1;PMS_P2;Temp;Humidity;BMP_temperature;BMP_pressure;BME280_temperature;BME280_humidity;BME280_pressure;Samples;Min_cycle;Max_cycle;Signal;HPM_P1;HPM_P2
2021/05/11 00:00:36;;;;;;;5.30;2.30;;;13.00;99.90;;;;;;6232184;28;20714;-71
2021/05/11 00:03:38;;;;;;;1.90;1.80;;;13.00;99.90;;;;;;6214926;28;20235;-71
2021/05/11 00:06:40;;;;;;;2.77;2.27;;;13.00;99.90;;;;;;6231125;28;20592;-71
2021/05/11 00:09:42;;;;;;;3.77;2.00;;;13.00;99.90;;;;;;6230876;28;20728;-71
2021/05/11 00:12:44;;;;;;;3.93;2.40;;;13.00;99.90;;;;;;6233477;28;20319;-71
2021/05/11 00:15:46;;;;;;;2.97;2.30;;;13.00;99.90;;;;;;6231159;28;20231;-72
2021/05/11 00:18:48;;;;;;;3.17;2.30;;;13.00;99.90;;;;;;6231906;28;20805;-71
2021/05/11 00:21:50;;;;;;;1.80;1.70;;;13.00;99.90;;;;;;6233283;28;20246;-71
2021/05/11 00:24:52;;;;;;;5.23;2.20;;;13.00;99.90;;;;;;6232696;28;20229;-71
2021/05/11 00:27:54;;;;;;;3.20;2.53;;;13.00;99.90;;;;;;6231088;28;20341;-71
2021/05/11 00:30:55;;;;;;;3.40;2.40;;;12.90;99.90;;;;;;6230821;28;20289;-71
2021/05/11 00:33:57;;;;;;;4.17;2.27;;;12.90;99.90;;;;;;6231693;28;20289;-71
2021/05/11 00:36:59;;;;;;;4.23;2.50;;;12.80;99.90;;;;;;6213374;28;20240;-71
2021/05/11 00:40:01;;;;;;;2.33;2.13;;;12.80;99.90;;;;;;6198950;28;20311;-71
2021/05/11 00:43:03;;;;;;;2.10;2.00;;;12.70;99.90;;;;;;6206878;28;20237;-71
2021/05/11 00:46:05;;;;;;;3.73;2.10;;;12.70;99.90;;;;;;6206731;28;20240;-71
2021/05/11 00:49:07;;;;;;;3.60;2.23;;;12.70;99.90;;;;;;6211497;28;20257;-71
2021/05/11 00:52:09;;;;;;;5.57;2.40;;;12.60;99.90;;;;;;6231863;28;20238;-71
2021/05/11 00:55:12;;;;;;;3.83;2.50;;;12.60;99.90;;;;;;6231766;28;20296;-71
2021/05/11 00:58:14;;;;;;;5.27;2.30;;;12.60;99.90;;;;;;6231757;28;20239;-72
2021/05/11 01:01:15;;;;;;;5.10;2.33;;;12.60;99.90;;;;;;6213479;28;20735;-71
2021/05/11 01:04:17;;;;;;;2.47;2.20;;;12.50;99.90;;;;;;6212786;28;20356;-71
2021/05/11 01:07:20;;;;;;;2.93;2.43;;;12.50;99.90;;;;;;6230302;28;20226;-70
2021/05/11 01:10:21;;;;;;;3.27;2.47;;;12.40;99.90;;;;;;6230107;28;20234;-71
2021/05/11 01:13:23;;;;;;;4.53;2.30;;;12.40;99.90;;;;;;6213375;28;20254;-71
2021/05/11 01:16:27;;;;;;;2.20;2.00;;;12.40;99.90;;;;;;6230413;28;20694;-70
2021/05/11 01:19:50;;;;;;;3.13;2.23;;;12.30;99.90;;;;;;6229806;28;20639;-71
2021/05/11 01:23:26;;;;;;;4.53;2.10;;;12.30;99.90;;;;;;6229035;28;20726;-71
2021/05/11 01:27:08;;;;;;;4.03;2.40;;;12.20;99.90;;;;;;6210724;28;20237;-71
2021/05/11 01:30:22;;;;;;;3.50;1.97;;;12.20;99.90;;;;;;6224557;28;20711;-71
2021/05/11 01:54:48;;;;;;;3.70;2.47;;;11.90;99.90;;;;;;6211027;28;20317;-71
2021/05/11 01:58:15;;;;;;;3.10;2.37;;;11.90;99.90;;;;;;6230330;28;20262;-71
2021/05/11 02:24:18;;;;;;;2.90;2.00;;;11.70;99.90;;;;;;6228606;28;20209;-71
2021/05/11 02:27:20;;;;;;;2.80;2.23;;;11.60;99.90;;;;;;6212465;28;23195;-71
2021/05/11 02:30:22;;;;;;;3.00;2.43;;;11.60;99.90;;;;;;6228644;28;20312;-71
2021/05/11 02:33:24;;;;;;;5.93;2.50;;;11.60;99.90;;;;;;6229550;28;20266;-70
2021/05/11 02:36:26;;;;;;;3.67;2.33;;;11.50;99.90;;;;;;6227926;28;20295;-71
2021/05/11 02:39:27;;;;;;;11.93;2.77;;;11.50;99.90;;;;;;6226885;28;20230;-71
2021/05/11 02:42:30;;;;;;;4.60;2.90;;;11.50;99.90;;;;;;6211474;28;20295;-70
2021/05/11 02:45:33;;;;;;;5.47;2.87;;;11.40;99.90;;;;;;6228875;28;20223;-71
2021/05/11 02:48:36;;;;;;;5.07;2.27;;;11.40;99.90;;;;;;6229583;28;20281;-71
2021/05/11 02:51:37;;;;;;;6.40;2.97;;;11.30;99.90;;;;;;6255967;28;20229;-71
2021/05/11 02:54:40;;;;;;;7.43;2.50;;;11.30;99.90;;;;;;6240426;28;20305;-71
2021/05/11 02:57:42;;;;;;;3.93;2.53;;;11.30;99.90;;;;;;6257559;28;20726;-70
2021/05/11 03:00:45;;;;;;;2.93;2.17;;;11.30;99.90;;;;;;6241095;28;20430;-70
2021/05/11 03:03:47;;;;;;;3.47;2.40;;;11.20;99.90;;;;;;6233666;28;20777;-71
2021/05/11 03:06:51;;;;;;;3.03;1.77;;;11.20;99.90;;;;;;6215950;28;20285;-71
2021/05/11 03:09:54;;;;;;;2.40;1.87;;;11.20;99.90;;;;;;6233662;28;20231;-70
2021/05/11 03:12:55;;;;;;;3.80;1.90;;;11.10;99.90;;;;;;6233560;28;20381;-70
2021/05/11 03:15:57;;;;;;;3.80;2.20;;;11.10;99.90;;;;;;6215132;28;20219;-70
2021/05/11 03:18:59;;;;;;;2.50;2.10;;;11.00;99.90;;;;;;6230005;28;20266;-70
2021/05/11 03:22:01;;;;;;;5.43;2.30;;;11.00;99.90;;;;;;6227856;28;20369;-70
2021/05/11 03:25:04;;;;;;;4.27;2.17;;;10.90;99.90;;;;;;6233379;28;20327;-70
2021/05/11 03:28:05;;;;;;;3.67;2.40;;;10.90;99.90;;;;;;6231612;28;20260;-71
2021/05/11 03:31:07;;;;;;;3.57;2.10;;;10.80;99.90;;;;;;6215361;28;20234;-70
2021/05/11 03:34:09;;;;;;;2.07;1.93;;;10.80;99.90;;;;;;6216261;28;20305;-70
2021/05/11 03:37:11;;;;;;;6.23;2.57;;;10.70;99.90;;;;;;6232197;28;20704;-70
2021/05/11 03:40:13;;;;;;;3.13;2.03;;;10.70;99.90;;;;;;6232787;28;20247;-70
2021/05/11 03:43:21;;;;;;;3.07;1.80;;;10.70;99.90;;;;;;6233398;28;20246;-70
2021/05/11 03:46:22;;;;;;;2.40;1.97;;;10.70;99.90;;;;;;6215259;28;20700;-70
2021/05/11 03:49:24;;;;;;;2.70;2.10;;;10.70;99.90;;;;;;6226282;28;20246;-70
2021/05/11 03:52:26;;;;;;;4.77;2.07;;;10.70;99.90;;;;;;6231018;28;20596;-70
2021/05/11 03:55:29;;;;;;;2.20;2.00;;;10.70;99.90;;;;;;6231138;28;20242;-70
2021/05/11 03:58:32;;;;;;;3.30;2.20;;;10.70;99.90;;;;;;6231742;28;20243;-70
2021/05/11 04:01:34;;;;;;;4.67;2.50;;;10.70;99.90;;;;;;6232264;28;20235;-70
2021/05/11 04:04:37;;;;;;;5.13;2.00;;;10.70;99.90;;;;;;6231743;28;20644;-70
2021/05/11 04:07:40;;;;;;;2.80;2.00;;;10.70;99.90;;;;;;6215039;28;20376;-70
2021/05/11 04:10:46;;;;;;;5.07;2.40;;;10.70;99.90;;;;;;6230408;28;20373;-71
2021/05/11 04:17:10;;;;;;;7.50;2.37;;;10.70;99.90;;;;;;6233789;28;20598;-71
2021/05/11 04:20:13;;;;;;;3.00;2.10;;;10.70;99.90;;;;;;6228200;28;20235;-70
2021/05/11 04:23:15;;;;;;;3.03;2.30;;;10.70;99.90;;;;;;6236219;28;20239;-70
2021/05/11 04:26:19;;;;;;;2.30;1.87;;;10.80;99.90;;;;;;6234684;28;20238;-70
2021/05/11 04:29:22;;;;;;;2.33;2.10;;;10.80;99.90;;;;;;6213912;28;20743;-70
2021/05/11 04:32:24;;;;;;;3.07;1.93;;;10.80;99.90;;;;;;6213717;28;20263;-70
2021/05/11 04:35:26;;;;;;;3.13;2.13;;;10.90;99.90;;;;;;6230459;28;20232;-70
2021/05/11 04:38:29;;;;;;;2.20;1.90;;;10.90;99.90;;;;;;6230473;28;20254;-70
2021/05/11 04:41:32;;;;;;;6.43;2.50;;;10.90;99.90;;;;;;6188893;28;20243;-70
2021/05/11 04:44:35;;;;;;;7.67;2.20;;;10.90;99.90;;;;;;6206170;28;20232;-70
2021/05/11 04:47:47;;;;;;;4.33;2.27;;;10.90;99.90;;;;;;6173530;28;20235;-71
2021/05/11 04:50:50;;;;;;;2.77;2.37;;;10.90;99.90;;;;;;6207569;28;20393;-71
2021/05/11 04:53:53;;;;;;;2.53;1.80;;;11.00;99.90;;;;;;6213555;28;20255;-70
2021/05/11 04:56:55;;;;;;;2.37;2.17;;;11.00;99.90;;;;;;6214272;28;20258;-70
2021/05/11 05:00:01;;;;;;;2.67;2.20;;;11.00;99.90;;;;;;6231994;28;20224;-70
2021/05/11 05:03:07;;;;;;;2.60;2.27;;;11.10;99.90;;;;;;6212269;28;20239;-70
2021/05/11 05:06:09;;;;;;;3.07;2.13;;;11.10;99.90;;;;;;6229176;28;20215;-71
2021/05/11 05:09:12;;;;;;;3.60;2.30;;;11.10;99.90;;;;;;6212560;28;20227;-71
2021/05/11 05:12:14;;;;;;;2.43;2.20;;;11.20;99.90;;;;;;6212757;28;20200;-70
2021/05/11 05:15:17;;;;;;;3.87;2.40;;;11.20;99.90;;;;;;6228590;28;20294;-70
2021/05/11 05:18:20;;;;;;;2.63;2.20;;;11.20;99.90;;;;;;6229451;28;20293;-71
2021/05/11 05:21:22;;;;;;;2.87;2.57;;;11.30;99.90;;;;;;6229087;28;20224;-71
2021/05/11 05:24:29;;;;;;;3.83;2.30;;;11.30;99.90;;;;;;6229755;28;20227;-71
2021/05/11 05:27:43;;;;;;;2.97;2.73;;;11.40;99.90;;;;;;6230829;28;20304;-71
2021/05/11 05:30:45;;;;;;;3.07;2.53;;;11.40;99.90;;;;;;6233744;28;20761;-71
2021/05/11 05:33:48;;;;;;;4.90;3.37;;;11.50;99.90;;;;;;6213514;28;20228;-72
2021/05/11 05:36:50;;;;;;;7.70;4.00;;;11.60;99.90;;;;;;6229271;28;20753;-71
2021/05/11 05:39:57;;;;;;;4.17;3.00;;;11.70;99.90;;;;;;6217895;28;20231;-71
2021/05/11 05:43:00;;;;;;;3.03;2.70;;;11.90;99.90;;;;;;6206141;28;20299;-71
2021/05/11 05:46:02;;;;;;;4.17;2.67;;;12.00;99.90;;;;;;6205177;28;20940;-70
2021/05/11 05:49:07;;;;;;;4.03;2.77;;;12.10;99.90;;;;;;6212612;28;20227;-70
2021/05/11 05:52:16;;;;;;;2.97;2.30;;;12.20;99.90;;;;;;6236838;28;20382;-70
2021/05/11 05:55:18;;;;;;;3.13;2.40;;;12.40;99.90;;;;;;6227049;28;20225;-70
2021/05/11 05:58:20;;;;;;;3.83;2.40;;;12.50;99.90;;;;;;6210542;28;20272;-71
2021/05/11 06:01:28;;;;;;;2.20;2.00;;;12.60;99.90;;;;;;6212381;28;20229;-70
2021/05/11 06:04:35;;;;;;;2.83;2.20;;;12.80;99.90;;;;;;6212985;28;20358;-71
2021/05/11 06:07:39;;;;;;;2.17;1.77;;;12.90;99.90;;;;;;6212116;28;20236;-71
2021/05/11 06:10:41;;;;;;;2.27;1.70;;;13.10;99.90;;;;;;6228668;28;20333;-71
2021/05/11 06:20:27;;;;;;;1.97;1.73;;;13.40;99.90;;;;;;6153264;28;20231;-71
2021/05/11 06:23:29;;;;;;;2.70;1.87;;;13.60;99.90;;;;;;6153295;28;20656;-71
2021/05/11 06:26:31;;;;;;;3.83;1.90;;;13.70;99.90;;;;;;6156638;28;20244;-71
2021/05/11 06:29:39;;;;;;;3.37;1.90;;;13.90;99.90;;;;;;6159309;28;20244;-71
2021/05/11 06:32:41;;;;;;;3.10;1.47;;;14.20;99.90;;;;;;6158949;28;20290;-71
2021/05/11 06:35:45;;;;;;;2.77;1.70;;;14.50;99.90;;;;;;6180985;28;20287;-71
2021/05/11 06:38:47;;;;;;;3.20;1.97;;;14.80;99.90;;;;;;6182942;28;20395;-71
2021/05/11 06:41:51;;;;;;;4.10;1.83;;;15.10;99.90;;;;;;6182528;28;20229;-71
2021/05/11 06:54:11;;;;;;;3.87;1.30;;;16.30;99.90;;;;;;6206836;28;20216;-71
2021/05/11 06:57:13;;;;;;;2.50;1.43;;;16.60;99.90;;;;;;6239927;28;20569;-70
2021/05/11 07:00:16;;;;;;;2.33;1.37;;;17.00;99.90;;;;;;6245702;28;20230;-70
2021/05/11 07:03:19;;;;;;;2.43;1.63;;;17.40;99.90;;;;;;6232000;28;20635;-71
2021/05/11 07:06:22;;;;;;;2.20;1.40;;;17.70;99.90;;;;;;6233896;28;20582;-71
2021/05/11 07:09:49;;;;;;;1.70;1.40;;;18.10;99.90;;;;;;6232505;28;20242;-71
2021/05/11 07:16:14;;;;;;;2.40;1.20;;;18.80;99.90;;;;;;6231989;28;20315;-71
2021/05/11 07:19:17;;;;;;;3.27;1.43;;;19.10;99.90;;;;;;6239030;28;20242;-71
2021/05/11 07:22:20;;;;;;;1.63;1.37;;;19.40;98.20;;;;;;6258873;28;20242;-71
2021/05/11 07:25:25;;;;;;;1.40;1.30;;;19.90;98.20;;;;;;6257466;28;20715;-70
2021/05/11 07:31:33;;;;;;;3.20;1.40;;;20.50;95.40;;;;;;6257119;28;20323;-71
2021/05/11 07:34:40;;;;;;;4.63;1.30;;;20.80;94.80;;;;;;6256509;28;20237;-71
2021/05/11 07:37:43;;;;;;;2.43;1.40;;;21.00;94.10;;;;;;6256779;28;20231;-71
2021/05/11 07:40:46;;;;;;;2.63;1.27;;;21.20;90.70;;;;;;6236672;28;20236;-71
2021/05/11 07:43:55;;;;;;;1.27;1.17;;;21.30;92.10;;;;;;6231923;28;20601;-71
2021/05/11 08:01:55;;;;;;;3.07;1.37;;;22.20;81.80;;;;;;6231332;28;20842;-71
2021/05/11 08:10:32;;;;;;;1.00;0.87;;;23.90;59.70;;;;;;6232090;28;20367;-70
2021/05/11 08:16:58;;;;;;;4.93;1.80;;;24.70;56.60;;;;;;6232391;28;20224;-72
2021/05/11 08:29:45;;;;;;;2.33;1.30;;;25.40;54.70;;;;;;6232373;28;20744;-71
2021/05/11 08:32:48;;;;;;;2.43;1.50;;;25.50;53.80;;;;;;6232605;28;20248;-71
2021/05/11 08:35:51;;;;;;;5.77;1.63;;;25.80;53.30;;;;;;6231230;28;20394;-71
2021/05/11 08:38:57;;;;;;;4.90;1.67;;;26.00;51.30;;;;;;6226886;28;20233;-71
2021/05/11 08:42:00;;;;;;;5.88;1.63;;;26.10;49.80;;;;;;6205151;28;20737;-71
2021/05/11 08:45:08;;;;;;;3.35;1.38;;;26.00;50.60;;;;;;6207415;28;20241;-70
2021/05/11 08:48:14;;;;;;;3.50;1.38;;;26.10;50.10;;;;;;6205601;28;20259;-72
2021/05/11 08:51:29;;;;;;;2.70;1.27;;;26.20;50.00;;;;;;6245414;28;20717;-71
2021/05/11 08:55:05;;;;;;;5.05;1.42;;;26.40;50.30;;;;;;6230610;28;20361;-71
2021/05/11 09:08:11;;;;;;;3.17;1.42;;;27.30;48.70;;;;;;6230471;28;20743;-70
2021/05/11 09:24:49;;;;;;;4.40;1.77;;;28.80;46.20;;;;;;6229217;28;20290;-69
2021/05/11 09:34:30;;;;;;;7.35;1.70;;;28.80;44.70;;;;;;6230252;28;20238;-71
2021/05/11 09:58:01;;;;;;;3.53;1.75;;;28.30;44.70;;;;;;6230022;28;20622;-70
2021/05/11 10:47:14;;;;;;;4.57;1.38;;;31.10;40.40;;;;;;6220284;28;20621;-70
2021/05/11 10:49:45;;;;;;;1.83;1.00;;;30.90;39.30;;;;;;6220330;28;20246;-70
2021/05/11 10:53:31;;;;;;;4.60;1.15;;;30.90;40.10;;;;;;6229485;28;20230;-71
2021/05/11 10:56:36;;;;;;;5.25;1.60;;;30.60;38.00;;;;;;6229630;28;20311;-71
2021/05/11 10:59:55;;;;;;;3.38;1.50;;;30.40;39.50;;;;;;6229513;28;20301;-70
2021/05/11 11:03:06;;;;;;;4.47;1.52;;;30.30;38.50;;;;;;6244269;28;20244;-70
2021/05/11 11:06:09;;;;;;;5.85;1.20;;;30.50;39.10;;;;;;6229048;28;20220;-70
2021/05/11 11:09:12;;;;;;;4.40;1.48;;;30.80;39.30;;;;;;6228915;28;20289;-70
2021/05/11 11:12:14;;;;;;;3.65;1.42;;;30.70;38.60;;;;;;6244745;28;20220;-70
2021/05/11 11:15:18;;;;;;;2.17;1.20;;;30.70;38.90;;;;;;6233420;28;20212;-71
2021/05/11 11:18:22;;;;;;;5.05;1.15;;;31.00;39.00;;;;;;6233265;28;20243;-71
2021/05/11 11:24:37;;;;;;;3.33;1.48;;;30.80;37.70;;;;;;6233411;28;20254;-71
2021/05/11 11:27:39;;;;;;;3.60;1.10;;;30.60;38.20;;;;;;6233786;28;20234;-71
2021/05/11 11:30:41;;;;;;;4.80;1.52;;;30.60;38.20;;;;;;6233642;28;20786;-71
2021/05/11 11:33:44;;;;;;;7.07;1.30;;;30.80;38.30;;;;;;6232244;28;20318;-70
2021/05/11 11:37:01;;;;;;;4.13;1.38;;;30.90;38.30;;;;;;6233956;28;20231;-72
2021/05/11 11:40:07;;;;;;;3.67;1.40;;;30.80;37.80;;;;;;6218323;28;20243;-71
2021/05/11 11:43:09;;;;;;;3.80;1.60;;;30.80;38.40;;;;;;6208892;28;20228;-71
2021/05/11 11:46:11;;;;;;;4.65;1.35;;;31.40;38.80;;;;;;6206531;28;20772;-70
2021/05/11 11:49:18;;;;;;;3.60;1.30;;;31.90;38.40;;;;;;6216790;28;20700;-70
2021/05/11 11:52:29;;;;;;;3.80;1.40;;;31.70;37.50;;;;;;6257295;28;20261;-70
2021/05/11 11:58:34;;;;;;;3.33;1.15;;;30.40;37.30;;;;;;6256960;28;20219;-70
2021/05/11 12:01:37;;;;;;;1.77;1.05;;;29.90;37.10;;;;;;6258050;28;20310;-71
2021/05/11 12:04:40;;;;;;;2.15;1.10;;;29.60;37.50;;;;;;6254971;28;20231;-70
2021/05/11 12:11:08;;;;;;;3.25;1.40;;;29.80;37.80;;;;;;6231173;28;20679;-70
2021/05/11 12:14:12;;;;;;;4.30;1.23;;;30.00;38.60;;;;;;6232951;28;20227;-71
2021/05/11 12:17:16;;;;;;;1.30;1.20;;;30.40;37.10;;;;;;6231602;28;20618;-71
2021/05/11 12:20:25;;;;;;;2.63;1.10;;;30.70;37.20;;;;;;6246606;28;20254;-71
2021/05/11 12:23:28;;;;;;;2.45;1.45;;;31.20;37.80;;;;;;6258748;28;20400;-71
2021/05/11 12:26:30;;;;;;;3.53;1.20;;;31.30;37.00;;;;;;6255645;28;20681;-70
2021/05/11 12:29:33;;;;;;;3.47;1.33;;;31.10;37.10;;;;;;6254866;28;20242;-70
2021/05/11 12:32:36;;;;;;;2.03;1.27;;;30.80;36.70;;;;;;6256584;28;20380;-70
2021/05/11 12:35:41;;;;;;;5.38;1.42;;;30.50;37.00;;;;;;6255275;28;20226;-71
2021/05/11 12:38:44;;;;;;;2.83;1.17;;;30.10;37.20;;;;;;6252705;28;20583;-71
2021/05/11 12:41:51;;;;;;;2.78;1.20;;;29.90;37.60;;;;;;6246945;28;20330;-69
2021/05/11 12:45:06;;;;;;;2.90;1.23;;;29.80;37.30;;;;;;6230810;28;20235;-70
2021/05/11 12:48:11;;;;;;;3.13;1.02;;;29.90;38.10;;;;;;6230426;28;20693;-70
2021/05/11 12:51:32;;;;;;;1.50;0.85;;;29.90;36.80;;;;;;6211025;28;20220;-70
2021/05/11 12:54:46;;;;;;;1.98;1.13;;;30.10;36.60;;;;;;6205732;28;20225;-71
2021/05/11 12:57:58;;;;;;;4.13;1.20;;;30.30;37.20;;;;;;6206558;28;20235;-71
2021/05/11 13:01:08;;;;;;;1.77;1.00;;;30.50;37.00;;;;;;6207366;28;20312;-70
2021/05/11 13:19:50;;;;;;;2.97;1.05;;;31.90;35.40;;;;;;6206063;28;20729;-71
2021/05/11 13:28:04;;;;;;;8.02;1.58;;;31.50;35.40;;;;;;6229657;28;20323;-70
2021/05/11 13:31:18;;;;;;;5.03;1.40;;;31.70;35.20;;;;;;6229187;28;20326;-70
2021/05/11 13:34:22;;;;;;;2.95;1.10;;;32.10;35.90;;;;;;6228269;28;20617;-70
2021/05/11 13:37:27;;;;;;;3.63;1.20;;;32.40;35.00;;;;;;6229180;28;20232;-71
2021/05/11 13:40:30;;;;;;;3.20;1.15;;;32.40;34.70;;;;;;6214266;28;20228;-70
2021/05/11 13:43:32;;;;;;;3.38;1.10;;;32.50;35.00;;;;;;6206440;28;20256;-71
2021/05/11 13:46:34;;;;;;;2.58;1.13;;;32.90;34.20;;;;;;6219381;28;20236;-70
2021/05/11 13:49:37;;;;;;;5.22;1.30;;;33.20;34.70;;;;;;6222771;28;20318;-70
2021/05/11 13:52:39;;;;;;;4.07;1.20;;;33.70;33.50;;;;;;6253000;28;20606;-70
2021/05/11 14:05:22;;;;;;;3.17;1.20;;;36.00;31.50;;;;;;6229792;28;20231;-71
2021/05/11 14:08:25;;;;;;;3.30;1.20;;;35.80;30.60;;;;;;6228787;28;20760;-70
2021/05/11 14:11:27;;;;;;;3.78;1.27;;;35.40;31.20;;;;;;6245150;28;20607;-69
2021/05/11 14:14:30;;;;;;;2.95;1.20;;;35.00;31.50;;;;;;6233661;28;20767;-70
2021/05/11 14:17:32;;;;;;;3.90;1.10;;;35.10;32.50;;;;;;6235327;28;20223;-71
2021/05/11 14:20:35;;;;;;;3.40;1.30;;;35.60;31.10;;;;;;6250940;28;20258;-71
2021/05/11 14:23:37;;;;;;;3.28;1.33;;;35.60;31.30;;;;;;6259560;28;20318;-70
2021/05/11 14:26:40;;;;;;;2.08;1.50;;;35.30;31.40;;;;;;6251083;28;20604;-71
2021/05/11 14:29:43;;;;;;;2.78;0.90;;;35.40;30.70;;;;;;6229703;28;20326;-70
2021/05/11 14:32:46;;;;;;;5.18;1.17;;;35.40;31.40;;;;;;6228727;28;20230;-70
2021/05/11 14:35:48;;;;;;;1.77;1.55;;;35.40;31.30;;;;;;6245246;28;20649;-71
2021/05/11 14:38:51;;;;;;;2.33;1.40;;;35.50;30.70;;;;;;6230038;28;20714;-70
2021/05/11 14:41:53;;;;;;;2.47;1.50;;;35.20;31.00;;;;;;6230411;28;20760;-70
2021/05/11 14:44:56;;;;;;;2.25;0.98;;;35.40;31.40;;;;;;6229688;28;20723;-71
2021/05/11 14:47:58;;;;;;;4.10;1.30;;;35.70;31.40;;;;;;6233058;28;20239;-71
2021/05/11 14:51:01;;;;;;;1.85;1.08;;;35.80;30.70;;;;;;6253520;28;20234;-71
2021/05/11 14:54:04;;;;;;;3.83;1.55;;;35.50;31.20;;;;;;6259552;28;20211;-70
2021/05/11 14:57:06;;;;;;;6.30;1.67;;;35.60;31.80;;;;;;6258204;28;20235;-70
2021/05/11 15:00:09;;;;;;;5.35;1.50;;;35.70;31.30;;;;;;6247666;28;20216;-72
2021/05/11 15:03:13;;;;;;;5.55;1.45;;;36.00;31.10;;;;;;6234234;28;20238;-70
2021/05/11 15:06:16;;;;;;;3.08;1.40;;;36.00;31.50;;;;;;6249264;28;20647;-70
2021/05/11 15:09:19;;;;;;;1.92;1.35;;;36.10;30.80;;;;;;6249522;28;20212;-70
2021/05/11 15:12:21;;;;;;;3.05;1.58;;;36.00;31.30;;;;;;6232777;28;20212;-71
2021/05/11 15:15:23;;;;;;;3.20;1.30;;;35.80;31.90;;;;;;6233713;28;20663;-71
2021/05/11 15:18:26;;;;;;;2.88;1.35;;;35.70;31.80;;;;;;6234072;28;20293;-71
2021/05/11 15:21:28;;;;;;;3.60;1.40;;;35.80;32.30;;;;;;6255521;28;20298;-71
2021/05/11 15:24:34;;;;;;;2.97;1.55;;;35.50;32.50;;;;;;6240672;28;20235;-71
2021/05/11 15:27:37;;;;;;;2.17;1.23;;;35.50;32.20;;;;;;6258027;28;20234;-71
2021/05/11 15:30:59;;;;;;;4.50;1.52;;;35.50;32.10;;;;;;6258107;28;20286;-71
2021/05/11 15:34:02;;;;;;;2.10;1.50;;;35.00;32.00;;;;;;6255969;28;20231;-70
2021/05/11 15:37:15;;;;;;;4.07;1.50;;;34.50;32.80;;;;;;6257643;28;20317;-72
2021/05/11 15:40:17;;;;;;;2.30;1.50;;;34.00;33.30;;;;;;6242267;28;20232;-71
2021/05/11 15:43:20;;;;;;;3.85;1.48;;;33.90;33.40;;;;;;6235142;28;20232;-70
2021/05/11 15:46:22;;;;;;;5.75;1.52;;;33.60;34.00;;;;;;6235960;28;20374;-70
2021/05/11 15:49:24;;;;;;;6.88;1.83;;;33.40;34.00;;;;;;6235102;28;20235;-71
2021/05/11 15:52:26;;;;;;;2.25;1.35;;;33.50;34.40;;;;;;6238770;28;20556;-70
2021/05/11 15:55:30;;;;;;;2.13;1.40;;;33.60;34.10;;;;;;6234951;28;20239;-70
2021/05/11 15:58:32;;;;;;;3.28;1.40;;;33.70;34.20;;;;;;6248083;28;20322;-71
2021/05/11 16:01:35;;;;;;;1.70;1.50;;;33.70;34.50;;;;;;6232772;28;20223;-70
2021/05/11 16:04:37;;;;;;;5.13;1.42;;;33.50;34.20;;;;;;6233975;28;20243;-71
2021/05/11 16:07:40;;;;;;;1.50;1.40;;;33.20;34.50;;;;;;6232304;28;20750;-70
2021/05/11 16:10:43;;;;;;;2.15;1.80;;;32.80;34.70;;;;;;6232844;28;20297;-71
2021/05/11 16:13:45;;;;;;;3.17;1.52;;;32.60;34.90;;;;;;6232410;28;20255;-70
2021/05/11 16:16:48;;;;;;;2.58;1.33;;;31.80;35.60;;;;;;6246364;28;20282;-70
2021/05/11 16:19:51;;;;;;;1.83;1.15;;;30.70;36.90;;;;;;6231377;28;20850;-70
2021/05/11 16:22:54;;;;;;;2.13;1.20;;;29.80;37.60;;;;;;6231852;28;20231;-70
2021/05/11 16:25:57;;;;;;;3.85;1.60;;;29.20;38.80;;;;;;6232292;28;20240;-71
2021/05/11 16:28:59;;;;;;;1.83;1.40;;;28.70;39.10;;;;;;6232321;28;20239;-70
2021/05/11 16:32:02;;;;;;;2.83;1.08;;;28.30;39.80;;;;;;6232919;28;20689;-71
2021/05/11 16:35:07;;;;;;;4.00;1.80;;;27.90;40.50;;;;;;6213742;28;20333;-70
2021/05/11 16:38:11;;;;;;;2.78;1.15;;;27.50;40.90;;;;;;6232153;28;20600;-71
2021/05/11 16:41:13;;;;;;;2.35;1.50;;;27.30;41.30;;;;;;6206531;28;20248;-70
2021/05/11 16:44:15;;;;;;;2.13;1.38;;;27.10;41.90;;;;;;6221916;28;20319;-70
2021/05/11 16:47:18;;;;;;;2.50;1.30;;;27.00;42.40;;;;;;6204739;28;20695;-70
2021/05/11 16:50:26;;;;;;;3.60;1.50;;;26.90;42.00;;;;;;6221038;28;20301;-71
2021/05/11 16:53:29;;;;;;;2.08;1.38;;;26.80;43.40;;;;;;6232507;28;20230;-71
2021/05/11 16:56:31;;;;;;;3.05;1.42;;;26.60;43.90;;;;;;6229722;28;20312;-70
2021/05/11 16:59:34;;;;;;;3.40;1.67;;;26.40;42.60;;;;;;6231184;28;20282;-70
2021/05/11 17:02:36;;;;;;;3.83;1.55;;;26.30;43.40;;;;;;6231965;28;20236;-70
2021/05/11 17:05:39;;;;;;;6.57;1.30;;;26.20;43.70;;;;;;6231734;28;20740;-70
2021/05/11 17:08:41;;;;;;;2.10;1.58;;;26.10;43.40;;;;;;6230864;28;20578;-70
2021/05/11 17:11:44;;;;;;;1.95;1.27;;;26.00;42.90;;;;;;6229781;28;20232;-70
2021/05/11 17:14:46;;;;;;;1.52;1.40;;;25.80;43.40;;;;;;6230745;28;20347;-70
2021/05/11 17:17:49;;;;;;;3.08;1.40;;;25.70;43.90;;;;;;6231180;28;20231;-71
2021/05/11 17:20:52;;;;;;;2.78;1.42;;;25.70;44.30;;;;;;6231518;28;20620;-70
2021/05/11 17:23:54;;;;;;;1.42;1.05;;;25.60;44.80;;;;;;6231864;28;20709;-71
2021/05/11 17:26:57;;;;;;;4.43;1.42;;;25.40;44.70;;;;;;6230320;28;20228;-70
2021/05/11 17:30:02;;;;;;;4.55;1.48;;;25.30;45.50;;;;;;6229279;28;20238;-70
2021/05/11 17:33:06;;;;;;;3.05;1.27;;;25.20;45.00;;;;;;6228889;28;20231;-71
2021/05/11 17:36:09;;;;;;;4.50;1.48;;;25.00;45.10;;;;;;6230948;28;20235;-70
2021/05/11 17:39:12;;;;;;;2.15;1.38;;;24.90;45.40;;;;;;6223450;28;20205;-70
2021/05/11 17:42:15;;;;;;;3.08;1.52;;;24.80;46.00;;;;;;6206343;28;20216;-70
2021/05/11 17:45:18;;;;;;;3.72;1.50;;;24.60;46.70;;;;;;6205108;28;20314;-70
2021/05/11 17:48:33;;;;;;;1.83;1.30;;;24.50;46.80;;;;;;6219962;28;20729;-70
2021/05/11 17:51:35;;;;;;;3.17;1.40;;;24.30;47.90;;;;;;6221599;28;20648;-70
2021/05/11 17:54:38;;;;;;;4.67;1.40;;;24.10;47.70;;;;;;6206136;28;20216;-71
2021/05/11 17:57:40;;;;;;;3.17;1.30;;;24.00;47.10;;;;;;6217981;28;20223;-71
2021/05/11 18:00:43;;;;;;;3.25;1.30;;;23.90;47.90;;;;;;6229336;28;20223;-70
2021/05/11 18:03:47;;;;;;;1.60;1.20;;;23.80;47.80;;;;;;6229701;28;20215;-70
2021/05/11 18:06:52;;;;;;;2.33;1.43;;;23.70;47.90;;;;;;6227726;28;20232;-69
2021/05/11 18:09:55;;;;;;;2.73;1.50;;;23.60;48.00;;;;;;6228285;28;20235;-70
2021/05/11 18:12:59;;;;;;;3.17;1.23;;;23.50;47.40;;;;;;6230018;28;20224;-70
2021/05/11 18:16:03;;;;;;;3.30;1.40;;;23.50;48.10;;;;;;6229036;28;20247;-69
2021/05/11 18:19:05;;;;;;;1.70;1.30;;;23.40;47.50;;;;;;6232178;28;20239;-71
2021/05/11 18:22:08;;;;;;;4.83;1.50;;;23.40;47.90;;;;;;6256873;28;20234;-70
2021/05/11 18:25:13;;;;;;;3.03;1.70;;;23.30;48.60;;;;;;6260322;28;20231;-70
2021/05/11 18:28:15;;;;;;;2.17;1.40;;;23.20;48.60;;;;;;6257390;28;20731;-70
2021/05/11 18:31:18;;;;;;;4.60;1.50;;;23.10;48.40;;;;;;6257313;28;20250;-69
2021/05/11 18:34:20;;;;;;;2.83;1.50;;;23.10;48.70;;;;;;6257396;28;20243;-70
2021/05/11 18:40:26;;;;;;;4.17;1.50;;;23.00;48.50;;;;;;6242215;28;20282;-70
2021/05/11 18:43:30;;;;;;;1.43;1.07;;;22.90;49.20;;;;;;6236121;28;20230;-70
2021/05/11 18:46:32;;;;;;;3.27;1.73;;;22.80;49.70;;;;;;6235095;28;20595;-70
2021/05/11 18:49:35;;;;;;;2.00;1.13;;;22.70;49.50;;;;;;6234678;28;20227;-70
2021/05/11 18:52:37;;;;;;;3.13;1.20;;;22.60;50.10;;;;;;6236196;28;20462;-70
2021/05/11 18:55:41;;;;;;;2.13;1.43;;;22.50;50.30;;;;;;6234259;28;20596;-70
2021/05/11 18:58:44;;;;;;;2.10;1.27;;;22.40;50.90;;;;;;6234314;28;20362;-70
2021/05/11 19:01:46;;;;;;;2.00;1.23;;;22.30;51.40;;;;;;6233006;28;20686;-70
2021/05/11 19:04:50;;;;;;;3.37;1.40;;;22.10;51.90;;;;;;6233136;28;20758;-70
2021/05/11 19:07:52;;;;;;;2.10;1.27;;;22.00;52.60;;;;;;6248557;28;20247;-70
2021/05/11 19:10:56;;;;;;;2.90;1.23;;;21.80;53.10;;;;;;6234845;28;20246;-70
2021/05/11 19:13:59;;;;;;;1.17;1.07;;;21.70;53.80;;;;;;6248351;28;20713;-70
2021/05/11 19:17:03;;;;;;;3.17;1.10;;;21.50;54.60;;;;;;6248700;28;20585;-70
2021/05/11 19:20:08;;;;;;;1.53;1.10;;;21.40;55.40;;;;;;6233456;28;20228;-70
2021/05/11 19:23:10;;;;;;;1.37;1.17;;;21.10;56.00;;;;;;6217001;28;20303;-70
2021/05/11 19:26:14;;;;;;;1.90;1.00;;;21.00;56.20;;;;;;6232847;28;20238;-70
2021/05/11 19:29:17;;;;;;;1.83;1.30;;;20.80;56.60;;;;;;6234402;28;20285;-70
2021/05/11 19:32:19;;;;;;;1.53;1.20;;;20.70;57.30;;;;;;6236511;28;20228;-70
2021/05/11 19:35:22;;;;;;;2.23;1.30;;;20.60;58.10;;;;;;6234058;28;20228;-70
2021/05/11 19:38:24;;;;;;;2.80;1.30;;;20.40;58.70;;;;;;6237115;28;20247;-70
2021/05/11 19:41:27;;;;;;;1.40;1.30;;;20.30;59.10;;;;;;6213804;28;20240;-70
2021/05/11 19:44:32;;;;;;;2.27;1.23;;;20.10;59.60;;;;;;6211931;28;20630;-70
2021/05/11 19:47:34;;;;;;;4.67;1.43;;;19.90;60.00;;;;;;6208902;28;20275;-70
2021/05/11 19:50:37;;;;;;;1.83;1.60;;;19.80;60.90;;;;;;6205840;28;20649;-70
2021/05/11 19:53:39;;;;;;;2.00;1.33;;;19.70;61.50;;;;;;6214399;28;20274;-70
2021/05/11 19:56:41;;;;;;;1.50;1.40;;;19.60;62.50;;;;;;6232376;28;20232;-70
2021/05/11 19:59:44;;;;;;;4.70;1.43;;;19.40;63.30;;;;;;6232260;28;20623;-70
2021/05/11 20:02:48;;;;;;;2.60;1.37;;;19.30;63.90;;;;;;6215469;28;20728;-70